• Join FlightAware (Why Join?)
  • Login
  • US Flag 
12:11PM EST


 

Airport Tracker/Info


-or-


 

Live Flight TrackerFlight Track Log ✈ UAL3597 ✈ 26-Apr-2014 ✈ KIAD - KBGM

Flight Track Log - Related Links

Times and Time Zones

All times are in EDT time to prevent confusion due to time zone crossing. See the UAL3597 flight status page for this flight to view local times or setup timezone preferences in your user account.

Time Position Orientation Groundspeed Altitude Reporting Facility
EDT Latitude Longitude Course Direction KTS MPH feet Rate Location/Type
05:37PM 39.0000 -77.4500 North 152 175 2,900  Level Potomac TRACON
05:38PM 39.0500 -77.4833 333° Northwest 158 182 4,800 1,440 Climbing Potomac TRACON
05:40PM 39.1450 -77.5069 349° North 159 183 8,000 1,440 Climbing Washington Center
05:41PM 39.1994 -77.5083 359° North 167 192 9,900 1,620 Climbing Washington Center
05:42PM 39.2450 -77.4500 North  Level FlightAware Approximate
05:43PM 39.2458 -77.5025 North 173 199 11,400  Level Washington Center
05:44PM 39.2911 -77.4972 North 165 190 12,800 1,200 Climbing Washington Center
05:45PM 39.3372 -77.4911 North 164 189 14,000 1,140 Climbing Washington Center
05:46PM 39.3869 -77.4853 North 176 203 15,200 1,080 Climbing Washington Center
05:47PM 39.4364 -77.4794 North 179 206 16,300 780 Climbing Washington Center
05:48PM 39.4989 -77.4714 North 185 213 16,900 240 Climbing Washington Center
05:49PM 39.5625 -77.4647 North 216 249 16,900  Level Washington Center
05:50PM 39.6283 -77.4569 North 233 268 16,900  Level Washington Center
05:51PM 39.6928 -77.4544 North 234 269 16,900 600 Level Washington Center
05:52PM 39.7528 -77.4539 360° North 221 254 18,200 960 Climbing Washington Center
05:53PM 39.8208 -77.4453 North 213 245 19,000 360 Climbing Washington Center
05:54PM 39.8814 -77.4114 23° Northeast 234 269 19,000  Level Washington Center
05:55PM 39.9431 -77.3772 23° Northeast 237 273 19,000  Level Washington Center
05:56PM 40.0075 -77.3419 23° Northeast 246 283 19,000  Level Washington Center
05:57PM 40.0761 -77.3061 22° Northeast 259 298 19,000  Level Washington Center
05:58PM 40.1442 -77.2686 23° Northeast 261 300 19,000  Level Washington Center
05:59PM 40.2153 -77.2300 23° Northeast 268 308 19,000  Level Washington Center
06:00PM 40.3008 -77.1839 22° Northeast 277 319 19,000  Level Washington Center
06:01PM 40.3750 -77.1436 22° Northeast 261 300 19,000  Level New York Center
06:02PM 40.4481 -77.1042 22° Northeast 261 300 19,000 -60 Level New York Center
06:03PM 40.5167 -77.0667 23° Northeast 261 300 18,900 -600 Descending New York Center
06:04PM 40.5792 -77.0286 25° Northeast 266 306 17,800 -1,320 Descending New York Center
06:05PM 40.6628 -76.9844 22° Northeast 274 315 16,300 -1,380 Descending New York Center
06:06PM 40.7272 -76.9492 23° Northeast 280 322 15,100 -660 Descending New York Center
06:07PM 40.8022 -76.9064 23° Northeast 267 307 15,000 -60 Descending New York Center
06:08PM 40.8581 -76.8786 21° North 252 290 15,000  Level New York Center
06:09PM 40.9308 -76.8383 23° Northeast 252 290 15,000 -60 Level New York Center
06:10PM 40.9911 -76.8025 24° Northeast 252 290 14,900 -60 Descending New York Center
06:11PM 41.0597 -76.7644 23° Northeast 258 297 14,900  Level New York Center
06:12PM 41.1261 -76.7292 22° Northeast 258 297 14,900  Level New York Center
06:13PM 41.1947 -76.6911 23° Northeast 258 297 14,900  Level New York Center
06:14PM 41.2656 -76.6475 25° Northeast 263 303 14,900  Level New York Center
06:15PM 41.3428 -76.6044 23° Northeast 263 303 14,900  Level New York Center
06:16PM 41.4133 -76.5664 22° Northeast 269 310 14,900  Level New York Center
06:17PM 41.4839 -76.5253 24° Northeast 269 310 14,900  Level New York Center
06:18PM 41.5461 -76.4919 22° Northeast 264 304 14,900 -360 Level New York Center
06:19PM 41.6167 -76.4508 24° Northeast 264 304 14,200 -840 Descending New York Center
06:20PM 41.6939 -76.4044 24° Northeast 264 304 13,300 -1,020 Descending New York Center
06:21PM 41.7647 -76.3633 23° Northeast 264 304 12,200 -1,260 Descending New York Center
06:22PM 41.8372 -76.3247 22° Northeast 272 313 10,900 -1,380 Descending New York Center
06:23PM 41.9056 -76.2858 23° Northeast 279 321 9,500 -1,560 Descending New York Center
06:24PM 41.9828 -76.2367 25° Northeast 279 321 7,800 -1,440 Descending New York Center
06:25PM 42.0036 -76.1489 72° East 242 278 6,600 600 Descending New York Center
06:26PM 42.0017 -76.0483 91° East 254 292 9,000 -1,320 Climbing New York Center
06:27PM 41.9975 -75.9558 93° East 274 315 4,000 -2,580 Descending New York Center
06:28PM 41.9956 -75.8581 92° East 274 315 4,000 -60 Level New York Center
06:29PM 42.0358 -75.8389 19° North 149 171 3,900 -60 Descending New York Center
06:30PM 42.0761 -75.8728 328° Northwest 109 125 3,900 -240 Level New York Center
06:31PM 42.1203 -75.9069 330° Northwest 148 170 3,500 -660 Descending New York Center
06:32PM 42.1544 -75.9375 326° Northwest 149 171 2,700 -720 Descending New York Center
06:33PM 42.1786 -75.9561 330° Northwest 125 144 2,100 -300 Descending New York Center
06:34PM 42.2089 -75.9781 332° Northwest 125 144 2,100 3,420 Level New York Center
06:35PM 42.2392 -76.0028 329° Northwest 125 144 9,000 7,080 Climbing New York Center